createdAt,value
2018-06-28T04:50:19.850Z,2.60
2018-06-28T04:51:26.261Z,2.47
2018-06-28T04:52:33.675Z,2.77
2018-06-28T04:53:40.103Z,2.00
2018-06-28T04:54:46.335Z,2.60
2018-06-28T04:55:52.703Z,2.73
2018-06-28T04:56:59.268Z,2.60
2018-06-28T04:58:05.977Z,2.37
2018-06-28T04:59:12.331Z,2.43
2018-06-28T05:00:18.563Z,2.60
2018-06-28T05:01:24.924Z,2.13
2018-06-28T05:02:32.275Z,2.37
2018-06-28T05:03:38.746Z,2.50
2018-06-28T05:04:45.211Z,2.80
2018-06-28T05:05:51.705Z,2.80
2018-06-28T05:07:00.094Z,2.43
2018-06-28T05:08:06.535Z,3.00
2018-06-28T05:09:12.963Z,2.70
2018-06-28T05:10:21.829Z,2.57
2018-06-28T05:11:28.743Z,2.63
2018-06-28T05:12:35.988Z,3.60
2018-06-28T05:13:42.412Z,3.00
2018-06-28T05:14:49.114Z,3.20
2018-06-28T05:15:56.227Z,2.47
2018-06-28T05:17:03.492Z,2.77
2018-06-28T05:18:09.790Z,2.30
2018-06-28T05:19:16.120Z,2.30
2018-06-28T05:20:22.375Z,2.53
2018-06-28T05:21:29.047Z,2.37
2018-06-28T05:22:37.687Z,2.30
2018-06-28T05:23:44.028Z,2.83
2018-06-28T05:24:50.468Z,2.80
2018-06-28T05:25:56.947Z,2.87
2018-06-28T05:27:03.198Z,2.23
2018-06-28T05:28:11.337Z,2.17
2018-06-28T05:29:17.811Z,2.30
2018-06-28T05:30:25.166Z,2.47
2018-06-28T05:31:31.808Z,2.40
2018-06-28T05:32:41.469Z,2.23
2018-06-28T05:33:47.786Z,2.90
2018-06-28T05:34:54.355Z,2.40
2018-06-28T05:36:01.031Z,2.33
2018-06-28T05:37:07.607Z,2.30
2018-06-28T05:38:13.943Z,2.40
2018-06-28T05:39:20.787Z,2.40
2018-06-28T05:40:27.803Z,2.00
2018-06-28T05:41:37.331Z,2.00
2018-06-28T05:42:43.705Z,2.03
2018-06-28T05:43:50.263Z,2.10
2018-06-28T05:44:56.864Z,2.63
2018-06-28T05:46:05.727Z,2.17
2018-06-28T05:47:12.618Z,2.13
2018-06-28T05:48:18.848Z,2.43
2018-06-28T05:49:25.305Z,2.60
2018-06-28T05:50:33.029Z,2.57
2018-06-28T05:51:40.141Z,2.50
2018-06-28T05:52:46.975Z,2.03
2018-06-28T05:53:53.715Z,2.53
2018-06-28T05:55:00.634Z,2.33
2018-06-28T05:56:07.390Z,2.70
2018-06-28T05:57:14.720Z,2.70
2018-06-28T05:58:21.855Z,2.40
2018-06-28T05:59:28.623Z,2.63
2018-06-28T06:00:36.441Z,2.70
2018-06-28T06:01:42.889Z,2.03
2018-06-28T06:02:49.244Z,2.03
2018-06-28T06:03:55.721Z,2.20
2018-06-28T06:05:02.301Z,2.23
2018-06-28T06:06:08.713Z,2.10
2018-06-28T06:07:15.360Z,2.30
2018-06-28T06:08:21.763Z,2.33
2018-06-28T06:09:29.250Z,2.63
2018-06-28T06:10:35.870Z,2.40
2018-06-28T06:11:43.098Z,2.37
2018-06-28T06:12:50.370Z,1.80
2018-06-28T06:13:56.887Z,2.17
2018-06-28T06:15:03.453Z,2.30
2018-06-28T06:16:29.063Z,2.07
2018-06-28T06:17:35.539Z,2.20
2018-06-28T06:18:42.170Z,2.00
2018-06-28T06:19:48.960Z,2.03
2018-06-28T06:20:55.499Z,1.60
2018-06-28T06:22:04.694Z,2.17
2018-06-28T06:23:12.654Z,2.40
2018-06-28T06:24:19.698Z,2.30
2018-06-28T06:25:26.256Z,2.10
2018-06-28T06:26:32.655Z,1.87
2018-06-28T06:27:39.329Z,2.83
2018-06-28T06:28:45.716Z,1.93
2018-06-28T06:29:52.105Z,1.87
2018-06-28T06:31:02.628Z,1.90
2018-06-28T06:32:09.008Z,2.07
2018-06-28T06:33:15.389Z,2.00
2018-06-28T06:34:21.801Z,2.03
2018-06-28T06:35:28.305Z,1.83
2018-06-28T06:36:34.962Z,1.80
2018-06-28T06:37:41.361Z,2.30
2018-06-28T06:38:48.224Z,2.00
2018-06-28T06:39:54.660Z,1.80
2018-06-28T06:41:01.732Z,2.10
2018-06-28T06:42:08.154Z,2.20
2018-06-28T06:43:14.902Z,1.80
2018-06-28T06:44:21.994Z,2.40
2018-06-28T06:45:28.458Z,1.70
2018-06-28T06:46:35.970Z,1.87
2018-06-28T06:47:42.283Z,2.17
2018-06-28T06:48:48.921Z,1.77
2018-06-28T06:49:55.396Z,2.00
2018-06-28T06:51:01.915Z,2.13
2018-06-28T06:52:08.304Z,2.00
2018-06-28T06:53:14.881Z,1.90
2018-06-28T06:54:21.531Z,2.00
2018-06-28T06:55:27.965Z,1.57
2018-06-28T06:56:35.962Z,1.80
2018-06-28T06:57:42.353Z,1.80
2018-06-28T06:58:48.910Z,1.87
2018-06-28T06:59:55.278Z,2.10
2018-06-28T07:01:03.334Z,1.97
2018-06-28T07:02:09.702Z,1.70
2018-06-28T07:03:15.950Z,1.80
2018-06-28T07:04:24.282Z,1.90
2018-06-28T07:05:30.776Z,1.90
2018-06-28T07:06:38.520Z,1.77
2018-06-28T07:07:44.924Z,2.40
2018-06-28T07:08:51.251Z,2.27
2018-06-28T07:09:57.776Z,2.10
2018-06-28T07:11:04.637Z,1.87
2018-06-28T07:12:15.627Z,2.10
2018-06-28T07:13:24.358Z,1.90
2018-06-28T07:14:31.101Z,1.40
2018-06-28T07:15:37.656Z,1.43
2018-06-28T07:16:44.293Z,2.40
2018-06-28T07:17:53.300Z,2.70
2018-06-28T07:18:59.941Z,1.90
2018-06-28T07:20:06.379Z,1.80
2018-06-28T07:21:12.779Z,1.77
2018-06-28T07:22:19.148Z,1.97
2018-06-28T07:23:25.608Z,1.90
2018-06-28T07:24:32.106Z,2.20
2018-06-28T07:25:39.841Z,2.60
2018-06-28T07:26:46.312Z,1.90
2018-06-28T07:27:52.620Z,1.70
2018-06-28T07:28:59.127Z,2.00
2018-06-28T07:30:06.502Z,1.93
2018-06-28T07:31:13.473Z,2.47
2018-06-28T07:32:20.405Z,1.47
2018-06-28T07:33:26.856Z,1.40
2018-06-28T07:34:33.423Z,1.63
2018-06-28T07:35:39.776Z,1.70
2018-06-28T07:36:46.280Z,1.77
2018-06-28T07:37:52.770Z,2.00
2018-06-28T07:39:00.535Z,1.40
2018-06-28T07:40:07.901Z,1.83
2018-06-28T07:41:14.253Z,1.47
2018-06-28T07:42:20.871Z,1.83
2018-06-28T07:43:29.023Z,1.87
2018-06-28T07:44:35.490Z,1.50
2018-06-28T07:45:41.959Z,1.70
2018-06-28T07:46:48.551Z,1.77
2018-06-28T07:47:54.941Z,1.53
2018-06-28T07:49:03.412Z,1.63
2018-06-28T07:50:12.166Z,2.07
2018-06-28T07:51:18.683Z,1.50
2018-06-28T07:52:25.023Z,1.60
2018-06-28T07:53:32.053Z,1.83
2018-06-28T07:54:38.659Z,1.50
2018-06-28T07:55:47.223Z,2.10
2018-06-28T07:56:54.630Z,1.30
2018-06-28T07:58:01.285Z,1.37
2018-06-28T07:59:07.701Z,1.70
2018-06-28T08:00:14.125Z,1.80
2018-06-28T08:01:20.589Z,2.00
2018-06-28T08:02:27.257Z,1.70
2018-06-28T08:03:33.693Z,1.27
2018-06-28T08:04:40.289Z,1.43
2018-06-28T08:05:47.249Z,1.67
2018-06-28T08:06:53.773Z,1.47
2018-06-28T08:08:00.453Z,1.40
2018-06-28T08:09:08.895Z,1.47
2018-06-28T08:10:16.443Z,1.17
2018-06-28T08:11:23.817Z,1.30
2018-06-28T08:12:32.039Z,1.40
2018-06-28T08:13:39.336Z,1.50
2018-06-28T08:14:46.226Z,1.30
2018-06-28T08:15:53.205Z,1.40
2018-06-28T08:16:59.908Z,1.30
2018-06-28T08:18:06.184Z,1.80
2018-06-28T08:19:12.641Z,1.20
2018-06-28T08:20:19.011Z,1.50
2018-06-28T08:21:27.356Z,1.33
2018-06-28T08:22:33.853Z,1.30
2018-06-28T08:23:40.207Z,1.63
2018-06-28T08:24:46.576Z,1.40
2018-06-28T08:26:00.961Z,1.27
2018-06-28T08:27:10.536Z,1.40
2018-06-28T08:28:17.589Z,1.70
2018-06-28T08:29:24.412Z,1.60
2018-06-28T08:30:31.316Z,1.30
2018-06-28T08:31:45.831Z,1.20
2018-06-28T08:32:54.105Z,1.40
2018-06-28T08:34:00.718Z,1.60
2018-06-28T08:35:07.730Z,1.20
2018-06-28T08:36:14.314Z,1.30
2018-06-28T08:37:20.922Z,1.60
2018-06-28T08:38:27.267Z,1.30
2018-06-28T08:39:33.985Z,1.13
2018-06-28T08:40:40.516Z,1.60
2018-06-28T08:41:46.931Z,1.27
2018-06-28T08:42:53.367Z,1.50
2018-06-28T08:43:59.687Z,1.23
2018-06-28T08:45:06.117Z,1.50
2018-06-28T08:46:21.304Z,1.40
2018-06-28T08:47:28.284Z,1.50
2018-06-28T08:48:34.838Z,1.20
2018-06-28T08:49:40.943Z,1.33
2018-06-28T08:50:47.261Z,1.60
2018-06-28T08:51:59.054Z,1.40
2018-06-28T08:53:32.055Z,1.20
2018-06-28T08:54:43.104Z,1.30
2018-06-28T08:55:49.659Z,1.30
2018-06-28T08:56:58.992Z,1.23
2018-06-28T08:58:05.507Z,1.20
2018-06-28T08:59:18.980Z,1.13
2018-06-28T09:00:26.022Z,1.17
2018-06-28T09:01:32.490Z,1.30
2018-06-28T09:02:38.893Z,1.17
2018-06-28T09:03:45.271Z,1.20
2018-06-28T09:04:51.793Z,1.30
2018-06-28T09:05:58.221Z,1.20
2018-06-28T09:07:04.504Z,1.47
2018-06-28T09:08:10.972Z,1.30
2018-06-28T09:09:17.280Z,1.60
2018-06-28T09:10:23.887Z,1.33
2018-06-28T09:11:30.483Z,1.10
2018-06-28T09:12:36.816Z,1.30
2018-06-28T09:13:43.232Z,1.40
2018-06-28T09:14:49.718Z,1.47
2018-06-28T09:15:56.067Z,1.50
2018-06-28T09:17:02.403Z,1.30
2018-06-28T09:18:08.778Z,1.17
2018-06-28T09:19:16.865Z,1.30
2018-06-28T09:20:23.785Z,1.27
2018-06-28T09:21:29.982Z,1.13
2018-06-28T09:22:36.724Z,1.20
2018-06-28T09:23:43.177Z,1.30
2018-06-28T09:24:49.438Z,1.10
2018-06-28T09:25:55.801Z,1.57
2018-06-28T09:27:02.293Z,1.60
2018-06-28T09:28:08.737Z,1.30
2018-06-28T09:29:15.819Z,1.53
2018-06-28T09:30:22.163Z,1.63
2018-06-28T09:31:28.568Z,1.27
2018-06-28T09:32:35.344Z,1.20
2018-06-28T09:33:41.601Z,1.37
2018-06-28T09:34:47.923Z,1.40
2018-06-28T09:35:55.631Z,1.33
2018-06-28T09:37:01.975Z,1.20
2018-06-28T09:38:08.341Z,1.37
2018-06-28T09:39:14.718Z,1.50
2018-06-28T09:40:21.573Z,1.40
2018-06-28T09:41:27.937Z,1.50
2018-06-28T09:42:34.314Z,1.20
2018-06-28T09:43:40.566Z,1.50
2018-06-28T09:44:47.290Z,1.20
2018-06-28T09:45:53.716Z,1.10
2018-06-28T09:47:00.842Z,1.40
2018-06-28T09:48:09.632Z,1.47
2018-06-28T09:49:17.543Z,1.50
2018-06-28T09:50:23.966Z,1.30
2018-06-28T09:51:30.214Z,1.20
2018-06-28T09:52:37.118Z,1.53
2018-06-28T09:53:43.358Z,1.53
2018-06-28T09:54:49.660Z,1.53
2018-06-28T09:55:56.110Z,1.30
2018-06-28T09:57:02.536Z,1.33
2018-06-28T09:58:20.292Z,1.47
2018-06-28T09:59:28.928Z,1.33
2018-06-28T10:00:39.870Z,1.30
2018-06-28T10:01:46.342Z,1.60
2018-06-28T10:02:52.620Z,1.67
2018-06-28T10:03:59.184Z,1.10
2018-06-28T10:05:05.648Z,1.37
2018-06-28T10:06:12.227Z,1.40
2018-06-28T10:07:19.431Z,1.30
2018-06-28T10:08:25.703Z,1.30
2018-06-28T10:09:32.635Z,1.10
2018-06-28T10:10:38.902Z,1.50
2018-06-28T10:11:45.307Z,1.23
2018-06-28T10:12:51.689Z,1.50
2018-06-28T10:13:57.806Z,1.30
2018-06-28T10:15:04.893Z,1.37
2018-06-28T10:16:13.467Z,1.60
2018-06-28T10:17:19.977Z,1.30
2018-06-28T10:18:26.280Z,1.23
2018-06-28T10:19:32.711Z,1.47
2018-06-28T10:20:39.003Z,1.60
2018-06-28T10:21:45.753Z,1.37
2018-06-28T10:22:51.814Z,1.30
2018-06-28T10:23:58.199Z,1.50
2018-06-28T10:25:04.773Z,1.40
2018-06-28T10:26:10.999Z,1.50
2018-06-28T10:27:23.777Z,1.43
2018-06-28T10:28:30.448Z,1.50
2018-06-28T10:29:37.072Z,1.60
2018-06-28T10:30:43.491Z,1.67
2018-06-28T10:31:50.036Z,1.70
2018-06-28T10:32:56.777Z,1.37
2018-06-28T10:34:04.325Z,1.73
2018-06-28T10:35:11.674Z,1.40
2018-06-28T10:36:17.900Z,1.40
2018-06-28T10:37:24.174Z,1.60
2018-06-28T10:38:30.670Z,1.80
2018-06-28T10:39:36.998Z,1.63
2018-06-28T10:40:43.378Z,1.33
2018-06-28T10:41:49.707Z,1.73
2018-06-28T10:42:56.120Z,1.70
2018-06-28T10:44:02.633Z,1.60
2018-06-28T10:45:12.051Z,1.50
2018-06-28T10:46:18.333Z,1.47
2018-06-28T10:47:26.724Z,1.33
2018-06-28T10:48:33.069Z,1.73
2018-06-28T10:49:39.495Z,1.60
2018-06-28T10:50:50.681Z,1.47
2018-06-28T10:51:56.708Z,1.67
2018-06-28T10:53:02.557Z,1.33
2018-06-28T10:55:50.910Z,1.63
2018-06-28T10:57:02.183Z,1.50
2018-06-28T10:58:09.188Z,1.60
2018-06-28T10:59:16.242Z,1.50
2018-06-28T11:00:22.963Z,2.13
2018-06-28T11:01:30.187Z,1.47
2018-06-28T11:02:37.235Z,1.50
2018-06-28T11:03:44.485Z,1.77
2018-06-28T11:04:50.909Z,1.63
2018-06-28T11:05:57.284Z,1.33
2018-06-28T11:07:04.342Z,1.47
2018-06-28T11:08:10.781Z,1.53
2018-06-28T11:09:17.503Z,1.50
2018-06-28T11:10:23.649Z,1.53
2018-06-28T11:11:29.955Z,1.40
2018-06-28T11:12:36.582Z,1.57
2018-06-28T11:13:43.014Z,1.47
2018-06-28T11:14:49.876Z,1.67
2018-06-28T11:16:02.918Z,1.67
2018-06-28T11:17:10.229Z,1.43
2018-06-28T11:18:17.071Z,1.60
2018-06-28T11:19:23.716Z,1.60
2018-06-28T11:20:31.379Z,1.50
2018-06-28T11:21:39.142Z,1.70
2018-06-28T11:22:45.276Z,1.73
2018-06-28T11:23:51.437Z,1.30
2018-06-28T11:24:57.612Z,1.90
2018-06-28T11:26:05.168Z,1.60
2018-06-28T11:27:11.463Z,1.57
2018-06-28T11:28:17.693Z,1.70
2018-06-28T11:29:24.247Z,1.77
2018-06-28T11:30:30.612Z,1.80
2018-06-28T11:31:36.915Z,1.70
2018-06-28T11:32:44.764Z,1.70
2018-06-28T11:33:52.051Z,2.00
2018-06-28T11:34:58.410Z,1.60
2018-06-28T11:36:05.172Z,1.40
2018-06-28T11:37:11.833Z,1.50
2018-06-28T11:38:18.052Z,1.50
2018-06-28T11:39:24.931Z,1.60
2018-06-28T11:40:30.807Z,1.30
2018-06-28T11:41:38.822Z,1.80
2018-06-28T11:42:47.262Z,1.70
2018-06-28T11:43:53.509Z,1.77
2018-06-28T11:44:59.522Z,1.40
2018-06-28T11:46:06.273Z,1.50
2018-06-28T11:47:12.671Z,1.43
2018-06-28T11:48:18.979Z,1.63
2018-06-28T11:49:29.335Z,1.53
2018-06-28T11:50:36.075Z,1.50
2018-06-28T11:51:42.596Z,1.40
2018-06-28T11:52:49.069Z,1.80
2018-06-28T11:53:55.626Z,1.70
2018-06-28T11:55:03.278Z,1.60
2018-06-28T11:56:09.575Z,1.47
2018-06-28T11:57:16.787Z,1.40
2018-06-28T11:58:23.508Z,1.60
2018-06-28T11:59:30.017Z,1.40
2018-06-28T12:00:36.348Z,1.40
2018-06-28T12:01:42.455Z,1.20
2018-06-28T12:02:48.698Z,1.33
2018-06-28T12:03:54.860Z,1.73
2018-06-28T12:05:03.147Z,1.40
2018-06-28T12:06:09.705Z,1.60
2018-06-28T12:07:15.597Z,1.53
2018-06-28T12:08:21.618Z,1.40
2018-06-28T12:09:28.578Z,1.30
2018-06-28T12:10:34.540Z,1.40
2018-06-28T12:11:40.796Z,1.40
2018-06-28T12:12:46.636Z,1.50
2018-06-28T12:13:52.381Z,1.50
2018-06-28T12:14:58.492Z,1.30
2018-06-28T12:16:04.341Z,1.47
2018-06-28T12:17:12.632Z,1.63
2018-06-28T12:18:18.519Z,1.43
2018-06-28T12:19:24.399Z,1.27
2018-06-28T12:20:30.645Z,1.47
2018-06-28T12:21:36.502Z,1.30
2018-06-28T12:22:42.675Z,1.83
2018-06-28T12:23:48.623Z,1.27
2018-06-28T12:24:54.623Z,1.27
2018-06-28T12:26:00.536Z,1.20
2018-06-28T12:27:07.025Z,1.73
2018-06-28T12:28:12.956Z,1.57
2018-06-28T12:29:18.851Z,1.67
2018-06-28T12:30:24.797Z,1.20
2018-06-28T12:31:30.653Z,1.43
2018-06-28T12:32:36.557Z,1.43
2018-06-28T12:33:42.452Z,1.40
2018-06-28T12:34:48.432Z,1.83
2018-06-28T12:36:01.865Z,1.37
2018-06-28T12:37:07.656Z,1.30
2018-06-28T12:38:13.832Z,1.47
2018-06-28T12:39:19.737Z,1.30
2018-06-28T12:40:25.635Z,1.50
2018-06-28T12:41:31.547Z,1.57
2018-06-28T12:42:37.468Z,1.30
2018-06-28T12:43:43.340Z,1.50
2018-06-28T12:44:49.304Z,1.50
2018-06-28T12:45:55.367Z,1.60
2018-06-28T12:47:39.656Z,1.30
2018-06-28T12:48:46.433Z,1.53
2018-06-28T12:49:52.684Z,1.73
2018-06-28T12:50:58.552Z,1.50
2018-06-28T12:52:52.663Z,1.37
2018-06-28T12:53:58.717Z,1.40
2018-06-28T12:55:04.619Z,1.40
2018-06-28T12:56:28.159Z,1.37
2018-06-28T12:57:33.970Z,1.80
2018-06-28T12:58:40.081Z,1.53
2018-06-28T12:59:46.043Z,1.67
2018-06-28T13:00:51.931Z,1.60
2018-06-28T13:01:59.277Z,1.43
2018-06-28T13:03:05.149Z,1.40
2018-06-28T13:04:11.017Z,1.57
2018-06-28T13:05:18.563Z,1.50
2018-06-28T13:06:24.533Z,1.50
2018-06-28T13:07:30.547Z,1.60
2018-06-28T13:08:36.387Z,1.57
2018-06-28T13:09:42.361Z,1.50
2018-06-28T13:10:48.187Z,1.60
2018-06-28T13:11:56.859Z,1.57
2018-06-28T13:13:02.757Z,1.40
2018-06-28T13:14:08.947Z,1.30
2018-06-28T13:15:15.607Z,1.40
2018-06-28T13:16:22.626Z,1.57
2018-06-28T13:17:29.610Z,1.67
2018-06-28T13:18:35.661Z,1.50
2018-06-28T13:19:41.679Z,1.57
2018-06-28T13:20:47.543Z,1.37
2018-06-28T13:21:53.853Z,1.40
2018-06-28T13:22:59.897Z,1.83
2018-06-28T13:24:05.985Z,1.30
2018-06-28T13:25:12.933Z,1.60
2018-06-28T13:26:19.571Z,1.30
2018-06-28T13:27:25.563Z,1.60
2018-06-28T13:28:31.539Z,1.90
2018-06-28T13:29:37.412Z,1.60
2018-06-28T13:30:43.421Z,1.77
2018-06-28T13:31:49.385Z,1.40
2018-06-28T13:32:55.151Z,1.53
2018-06-28T13:34:01.204Z,1.50
2018-06-28T13:35:07.527Z,1.27
2018-06-28T13:36:13.545Z,1.40
2018-06-28T13:37:19.457Z,1.77
2018-06-28T13:38:25.357Z,1.33
2018-06-28T13:39:31.142Z,1.43
2018-06-28T13:40:37.187Z,1.60
2018-06-28T13:41:43.505Z,1.37
2018-06-28T13:42:49.177Z,1.37
2018-06-28T13:43:55.221Z,1.43
2018-06-28T13:45:04.334Z,1.80
2018-06-28T13:46:13.858Z,1.60
2018-06-28T13:47:20.077Z,1.70
2018-06-28T13:48:25.958Z,1.43
2018-06-28T13:49:31.813Z,1.60
2018-06-28T13:50:37.597Z,1.60
2018-06-28T13:51:43.457Z,1.30
2018-06-28T13:52:49.287Z,1.37
2018-06-28T13:53:55.230Z,1.80
2018-06-28T13:55:01.259Z,1.57
2018-06-28T13:56:07.085Z,1.53
2018-06-28T13:57:13.242Z,1.53
2018-06-28T13:58:19.059Z,1.37
2018-06-28T13:59:24.954Z,1.70
2018-06-28T14:00:30.800Z,1.50
2018-06-28T14:01:37.090Z,1.40
2018-06-28T14:02:43.154Z,1.50
2018-06-28T14:04:09.163Z,1.43
2018-06-28T14:05:28.254Z,1.60
2018-06-28T14:06:34.255Z,1.90
2018-06-28T14:07:40.220Z,1.60
2018-06-28T14:08:46.163Z,1.43
2018-06-28T14:09:52.515Z,1.73
2018-06-28T14:10:58.503Z,1.67
2018-06-28T14:12:04.550Z,1.50
2018-06-28T14:13:11.051Z,1.70
2018-06-28T14:14:16.856Z,1.90
2018-06-28T14:15:22.852Z,1.60
2018-06-28T14:16:28.858Z,1.63
2018-06-28T14:17:35.418Z,1.57
2018-06-28T14:18:41.697Z,1.47
2018-06-28T14:19:51.301Z,1.57
2018-06-28T14:20:57.169Z,1.77
2018-06-28T14:22:03.068Z,1.30
2018-06-28T14:23:09.206Z,1.83
2018-06-28T14:24:18.442Z,1.50
2018-06-28T14:25:24.291Z,1.80
2018-06-28T14:26:31.300Z,1.50
2018-06-28T14:27:37.617Z,1.40
2018-06-28T14:28:51.708Z,1.70
2018-06-28T14:29:57.713Z,1.70
2018-06-28T14:31:03.608Z,1.50
2018-06-28T14:32:10.631Z,1.77
2018-06-28T14:33:17.032Z,1.70
2018-06-28T14:34:22.956Z,1.77
2018-06-28T14:35:28.847Z,1.60
2018-06-28T14:36:34.878Z,1.60
2018-06-28T14:37:41.537Z,1.80
2018-06-28T14:38:50.198Z,1.90
2018-06-28T14:39:56.697Z,1.73
2018-06-28T14:41:04.751Z,1.73
2018-06-28T14:42:20.573Z,1.37
2018-06-28T14:43:37.322Z,1.40
2018-06-28T14:45:03.028Z,1.30
2018-06-28T14:46:11.529Z,1.50
2018-06-28T14:47:25.810Z,1.60
2018-06-28T14:48:41.509Z,2.00
2018-06-28T14:49:54.818Z,2.10
2018-06-28T14:51:03.916Z,2.07
2018-06-28T14:52:18.139Z,1.70
2018-06-28T14:53:25.979Z,1.40
2018-06-28T14:54:32.669Z,1.83
2018-06-28T14:55:38.597Z,1.93
2018-06-28T14:56:44.478Z,1.80
2018-06-28T14:57:50.382Z,1.47
2018-06-28T14:58:56.280Z,1.60
2018-06-28T15:00:02.228Z,1.50
2018-06-28T15:01:08.295Z,1.97
2018-06-28T15:02:14.192Z,1.53
2018-06-28T15:03:20.099Z,1.73
2018-06-28T15:04:25.978Z,1.60
2018-06-28T15:05:33.175Z,1.60
2018-06-28T15:06:39.645Z,1.80
2018-06-28T15:07:45.503Z,1.30
2018-06-28T15:08:51.394Z,1.53
2018-06-28T15:09:57.161Z,1.77
2018-06-28T15:11:03.133Z,1.73
2018-06-28T15:12:09.198Z,1.70
2018-06-28T15:13:15.204Z,1.30
2018-06-28T15:14:20.991Z,1.57
2018-06-28T15:15:27.903Z,1.60
2018-06-28T15:16:34.048Z,1.60
2018-06-28T15:17:40.248Z,1.63
2018-06-28T15:18:47.106Z,1.40
2018-06-28T15:19:52.994Z,1.57
2018-06-28T15:20:59.035Z,1.70
2018-06-28T15:22:05.474Z,1.60
2018-06-28T15:23:11.388Z,1.60
2018-06-28T15:24:17.598Z,1.30
2018-06-28T15:25:24.504Z,1.47
2018-06-28T15:26:30.270Z,1.43
2018-06-28T15:28:04.871Z,1.30
2018-06-28T15:29:12.447Z,1.53
2018-06-28T15:30:18.542Z,1.70
2018-06-28T15:31:24.356Z,1.80
2018-06-28T15:32:30.248Z,1.70
2018-06-28T15:33:36.268Z,1.37
2018-06-28T15:34:42.234Z,1.50
2018-06-28T15:35:48.225Z,1.50
2018-06-28T15:36:53.912Z,2.00
2018-06-28T15:37:59.723Z,1.73
2018-06-28T15:39:08.317Z,1.57
2018-06-28T15:40:14.314Z,1.50
2018-06-28T15:41:20.241Z,2.07
2018-06-28T15:42:26.121Z,1.97
2018-06-28T15:43:32.039Z,2.10
2018-06-28T15:44:37.799Z,2.03
2018-06-28T15:45:43.847Z,2.07
2018-06-28T15:46:50.225Z,1.53
2018-06-28T15:47:56.043Z,1.60
2018-06-28T15:49:01.820Z,1.50
2018-06-28T15:50:07.803Z,1.60
2018-06-28T15:51:13.578Z,1.90
2018-06-28T15:52:19.605Z,1.67
2018-06-28T15:53:25.576Z,2.00
2018-06-28T15:54:31.510Z,1.77
2018-06-28T15:55:37.471Z,1.60
2018-06-28T15:56:43.559Z,1.53
2018-06-28T15:57:49.500Z,1.83
2018-06-28T15:58:55.401Z,1.90
2018-06-28T16:00:01.155Z,1.73
2018-06-28T16:01:07.005Z,1.63
2018-06-28T16:02:13.468Z,1.40
2018-06-28T16:03:19.294Z,1.50
2018-06-28T16:04:33.070Z,1.47
2018-06-28T16:05:38.925Z,1.40
2018-06-28T16:06:44.996Z,1.70
2018-06-28T16:07:50.853Z,1.80
2018-06-28T16:08:56.815Z,1.47
2018-06-28T16:10:02.574Z,1.70
2018-06-28T16:11:08.568Z,1.57
2018-06-28T16:12:14.453Z,1.73
2018-06-28T16:13:20.427Z,1.63
2018-06-28T16:14:26.317Z,1.70
2018-06-28T16:15:32.262Z,1.77
2018-06-28T16:16:38.109Z,1.50
2018-06-28T16:17:45.641Z,1.73
2018-06-28T16:18:51.435Z,1.80
2018-06-28T16:21:47.263Z,1.60
2018-06-28T16:22:55.963Z,2.00
2018-06-28T16:24:18.482Z,1.73
2018-06-28T16:25:24.300Z,1.70
2018-06-28T16:26:30.103Z,1.80
2018-06-28T16:27:36.172Z,1.50
2018-06-28T16:28:41.916Z,1.60
2018-06-28T16:29:47.756Z,1.80
2018-06-28T16:30:53.648Z,1.63
2018-06-28T16:31:59.409Z,1.70
2018-06-28T16:33:05.593Z,1.93
2018-06-28T16:34:11.523Z,1.50
2018-06-28T16:35:29.222Z,1.80
2018-06-28T16:36:37.211Z,2.00
2018-06-28T16:37:43.026Z,1.60
2018-06-28T16:38:49.151Z,1.40
2018-06-28T16:39:54.946Z,2.03
2018-06-28T16:41:00.927Z,1.73
2018-06-28T16:42:06.936Z,1.50
2018-06-28T16:43:12.996Z,1.50
2018-06-28T16:44:19.255Z,1.50
2018-06-28T16:45:25.231Z,1.50
2018-06-28T16:46:31.325Z,1.93
2018-06-28T16:47:46.223Z,1.50
2018-06-28T16:48:54.597Z,1.47
2018-06-28T16:50:12.671Z,1.53
2018-06-28T16:51:22.301Z,1.50
2018-06-28T16:53:18.226Z,1.50
2018-06-28T16:54:32.021Z,1.60
2018-06-28T16:55:56.551Z,1.50
2018-06-28T16:57:21.543Z,1.70
2018-06-28T16:58:35.930Z,1.57
2018-06-28T16:59:49.865Z,1.43
2018-06-28T17:01:16.570Z,1.43
2018-06-28T17:02:23.280Z,1.47
2018-06-28T17:03:29.655Z,2.00
2018-06-28T17:04:35.752Z,1.83
2018-06-28T17:05:42.097Z,1.33
2018-06-28T17:06:48.224Z,1.67
2018-06-28T17:07:54.797Z,1.80
2018-06-28T17:09:02.588Z,1.70
2018-06-28T17:10:08.619Z,1.93
2018-06-28T17:11:15.120Z,2.10
2018-06-28T17:12:23.660Z,1.80
2018-06-28T17:13:29.928Z,2.60
2018-06-28T17:14:35.954Z,2.17
2018-06-28T17:15:42.287Z,2.30
2018-06-28T17:16:49.260Z,2.50
2018-06-28T17:17:55.436Z,2.10
2018-06-28T17:19:01.578Z,1.93
2018-06-28T17:20:07.657Z,2.33
2018-06-28T17:21:13.981Z,2.47
2018-06-28T17:22:20.309Z,2.50
2018-06-28T17:23:26.612Z,2.70
2018-06-28T17:24:32.632Z,2.23
2018-06-28T17:25:38.698Z,2.37
2018-06-28T17:26:44.893Z,2.63
2018-06-28T17:27:50.962Z,2.70
2018-06-28T17:28:57.639Z,2.17
2018-06-28T17:30:03.661Z,2.57
2018-06-28T17:31:09.706Z,2.73
2018-06-28T17:32:15.688Z,2.87
2018-06-28T17:33:21.616Z,3.50
2018-06-28T17:34:28.787Z,2.70
2018-06-28T17:35:35.038Z,2.70
2018-06-28T17:36:43.803Z,2.73
2018-06-28T17:37:49.936Z,2.80
2018-06-28T17:38:56.274Z,2.30
2018-06-28T17:40:04.694Z,2.83
2018-06-28T17:41:10.776Z,3.07
2018-06-28T17:42:19.765Z,2.33
2018-06-28T17:43:25.912Z,2.90
2018-06-28T17:44:32.197Z,3.00
2018-06-28T17:45:38.346Z,2.63
2018-06-28T17:46:44.631Z,2.63
2018-06-28T17:47:51.024Z,2.50
2018-06-28T17:48:57.659Z,2.90
2018-06-28T17:50:05.017Z,2.90
2018-06-28T17:51:11.146Z,2.33
2018-06-28T17:52:17.362Z,2.67
2018-06-28T17:53:24.511Z,2.90
2018-06-28T17:54:31.444Z,2.80
2018-06-28T17:55:38.744Z,2.30
2018-06-28T17:56:51.142Z,2.63
2018-06-28T17:57:57.340Z,3.30
2018-06-28T17:59:04.667Z,2.60
2018-06-28T18:00:10.930Z,2.70
2018-06-28T18:01:18.624Z,2.60
2018-06-28T18:02:24.977Z,3.10
2018-06-28T18:03:31.388Z,2.70
2018-06-28T18:04:37.656Z,2.50
2018-06-28T18:05:45.404Z,2.30
2018-06-28T18:06:51.813Z,2.50
2018-06-28T18:07:58.098Z,3.00
2018-06-28T18:09:05.277Z,2.97
2018-06-28T18:10:11.653Z,2.57
2018-06-28T18:11:17.877Z,3.00
2018-06-28T18:12:24.255Z,2.73
2018-06-28T18:13:31.425Z,2.60
2018-06-28T18:14:38.480Z,2.53
2018-06-28T18:15:47.845Z,3.00
2018-06-28T18:16:54.089Z,2.60
2018-06-28T18:18:00.448Z,2.60
2018-06-28T18:19:06.534Z,2.70
2018-06-28T18:20:13.815Z,2.73
2018-06-28T18:21:20.292Z,3.00
2018-06-28T18:22:27.303Z,2.53
2018-06-28T18:23:34.827Z,2.53
2018-06-28T18:24:41.956Z,2.40
2018-06-28T18:25:48.811Z,2.93
2018-06-28T18:26:56.617Z,2.50
2018-06-28T18:28:04.753Z,2.93
2018-06-28T18:29:12.529Z,2.57
2018-06-28T18:30:21.225Z,3.43
2018-06-28T18:31:28.222Z,2.80
2018-06-28T18:32:35.072Z,2.67
2018-06-28T18:33:40.999Z,2.70
2018-06-28T18:34:48.354Z,2.57
2018-06-28T18:35:55.973Z,3.07
2018-06-28T18:37:04.030Z,2.60
2018-06-28T18:38:11.684Z,2.90
2018-06-28T18:39:17.876Z,2.90
2018-06-28T18:40:24.340Z,2.70
2018-06-28T18:41:32.613Z,2.30
2018-06-28T18:42:38.757Z,2.50
2018-06-28T18:43:47.497Z,2.93
2018-06-28T18:44:55.983Z,3.10
2018-06-28T18:46:02.218Z,3.27
2018-06-28T18:47:09.350Z,3.13
2018-06-28T18:48:15.422Z,3.00
2018-06-28T18:49:21.637Z,3.07
2018-06-28T18:50:28.535Z,2.90
2018-06-28T18:51:34.961Z,2.57
2018-06-28T18:52:41.282Z,2.70
2018-06-28T18:53:48.343Z,2.87
2018-06-28T18:54:54.616Z,2.77
2018-06-28T18:56:02.463Z,2.80
2018-06-28T18:57:09.455Z,3.00
2018-06-28T18:58:16.072Z,2.43
2018-06-28T18:59:22.161Z,2.90
2018-06-28T19:00:30.200Z,2.40
2018-06-28T19:01:36.706Z,3.10
2018-06-28T19:02:42.943Z,3.03
2018-06-28T19:03:49.494Z,3.17
2018-06-28T19:04:55.506Z,2.47
2018-06-28T19:06:01.641Z,3.00
2018-06-28T19:07:08.364Z,2.70
2018-06-28T19:08:15.271Z,2.80
2018-06-28T19:09:21.550Z,3.07
2018-06-28T19:10:35.356Z,3.40
2018-06-28T19:11:42.157Z,2.80
2018-06-28T19:12:48.182Z,2.70
2018-06-28T19:14:01.573Z,2.67
2018-06-28T19:15:13.096Z,2.70
2018-06-28T19:16:24.352Z,2.80
2018-06-28T19:17:30.672Z,2.80
2018-06-28T19:18:36.833Z,3.30
2018-06-28T19:19:43.071Z,2.87
2018-06-28T19:20:55.596Z,2.73
2018-06-28T19:22:08.639Z,3.57
2018-06-28T19:24:22.320Z,2.57
2018-06-28T19:25:28.527Z,2.90
2018-06-28T19:26:34.600Z,2.70
2018-06-28T19:27:42.469Z,2.63
2018-06-28T19:28:49.375Z,2.80
2018-06-28T19:30:02.946Z,2.50
2018-06-28T19:31:16.825Z,2.80
2018-06-28T19:32:27.730Z,3.13
2018-06-28T19:33:33.779Z,4.00
2018-06-28T19:34:39.912Z,3.10
2018-06-28T19:35:47.828Z,2.97
2018-06-28T19:36:55.865Z,2.77
2018-06-28T19:38:02.054Z,2.60
2018-06-28T19:39:15.229Z,2.87
2018-06-28T19:40:26.387Z,2.77
2018-06-28T19:41:37.289Z,2.60
2018-06-28T19:42:48.189Z,2.63
2018-06-28T19:43:54.748Z,2.87
2018-06-28T19:45:01.190Z,2.50
2018-06-28T19:46:08.397Z,2.37
2018-06-28T19:47:14.686Z,2.43
2018-06-28T19:48:22.304Z,2.77
2018-06-28T19:49:33.894Z,3.07
2018-06-28T19:50:46.255Z,2.63
2018-06-28T19:51:57.526Z,3.13